Warning: Javascript must be enabled to use all the features on this page!


Page Loading - Please Wait...

Click to hideNews Bulletins

Peak Streamflow for the Nation

USGS 05385000 ROOT RIVER NEAR HOUSTON, MN

Houston County, Minnesota
Hydrologic Unit Code 07040008
Latitude  43°46'07", Longitude  91°34'11" NAD27
Drainage area 1,250  square miles
Gage datum 667.02 feet above NAVD88
Output formats
Table
Graph
Tab-separated file
peakfq (watstore) format
Reselect output format
Water
Year
Date Gage
Height
(feet)
Stream-
flow
(cfs)
1910 1910-03-07   2,5001
1911 1911-08-14 10.80 15,200
1912 1912-03-30 10.00 10,600
1913 1913-03-25 9.90 10,000
1914 1914-06-28 10.20 11,700
1915 1915-03-26 9.35 7,330
1916 1916-03-26 9.70 7,970
1917 1917-03-23 11.95 17,000
1930 1930-06-04 8.293 5,100
1931 1931-07-15 8.003 4,580
1932 1932-03-27 9.313 6,900
1933 1933-03-31 14.073 26,600
1934 1934-04-04 12.563 19,000
1935 1935-08-06 10.813 11,700
1936 1936-05-01 11.173 14,000
1937 1937-03-07 11.382,3 14,500
1938 1938-09-11 11.793 15,600
1939 1939-03-21 8.892,3 6,620
1940 1940-03-30 9.303 7,860
1941 1941-05-30 8.663 6,280
1942 1942-06-30 13.623 23,700
1943 1943-03-27 10.503 10,600
1944 1944-02-26 8.553 6,120
1945 1945-03-17 13.393 23,900
1946 1946-03-06 10.823 13,700
1947 1947-04-06 10.313 9,300
1948 1948-02-29 12.001,3 11,700
1949 1949-03-31 9.172,3 8,450
1950 1950-03-27 16.563 31,000
1951 1951-07-22 11.583 14,800
1952 1952-04-01 13.903 37,000
1953 1953-07-27 10.053 10,400
1954 1954-06-21 8.193 5,370
1955 1955-03-10 6.931,2,3 3,760
1956 1956-04-03 10.223 9,660
1957 1957-07-22 5.182,3 2,230
1958 1958-06-06 10.133 9,600
1959 1959-06-27 10.853 10,100
1960 1960-08-29 9.923 8,800
1961 1961-03-27 15.103 31,400
1962 1962-03-30 14.363 29,500
1963 1963-03-24   10,7002
1964 1964-04-03 3.273 1,110
1965 1965-03-02 18.321,3 31,000
1966 1966-02-10 12.941,3 18,500
1967 1967-03-27 11.122,3 14,200
1968 1968-05-16 5.533 3,210
1969 1969-04-05 9.253 8,280
1970 1970-06-18 4.742,3 2,250
1971 1971-04-02 10.193,5 8,970
1972 1972-03-16 10.003 10,200
1973 1973-04-17 10.482,3 11,700
1974 1974-06-22 12.723 19,800
1975 1975-04-29 9.743 9,430
1976 1976-03-13 13.383 19,800
1977 1977-06-05 4.403 2,290
1978 1978-07-01 12.203 12,200
1979 1979-03-31 9.953 10,400
1980 1980-09-21 15.29 16,400
1981 1981-07-13 13.99 12,600
1982 1982-05-14 9.52 4,460
1983 1983-07-03 13.33 9,500
1985 1985-03-11 12.422 8,780
1986 1986-09-23 14.73 13,600
1987 1986-10-13 13.53 10,900
1988 1988-03-09 5.962 1,600
1989 1989-03-24 9.99 4,890
1990 1990-04-25 13.34 9,520
1991 1991-05-07 10.04 4,940
1992 1992-03-10 10.74 5,760
1993 1993-04-02 16.14 15,800
1994 1994-03-06 9.872 4,780
1995 1995-03-12 11.13 6,240
1996 1996-03-25 12.88 8,710
1997 1997-03-29 12.24 7,750
1998 1998-06-29 12.13 7,590
1999 1999-07-21 12.41 8,000
2000 2000-06-02 17.59 34,600
2001 2001-04-13 15.51 16,700
2002 2002-06-06 9.31 4,660
2003 2003-05-13 7.00 2,650
2004 2004-09-17 16.56 23,800
2005 2005-02-06 13.34 9,770
2006 2006-04-09 12.13 7,890
2007 2007-08-19 18.15 46,000
2008 2008-06-10 16.13 16,100
2009 2009-06-10 8.282 4,070
2010 2010-09-27 15.54 13,900
2011 2011-03-24 14.85 12,000
2012 2012-03-01 8.47 4,250
2013 2013-05-21 16.37 22,800
2014 2014-04-01 11.85 8,070
2015 2015-04-11 9.83 5,730
2016 2016-09-24 17.01 22,200
2017 2017-02-22 12.44 8,660
2018 2018-06-10 10.93 6,760
2019 2019-03-15 19.061,2 17,2002
2020 2020-03-10 11.12 7,050
2021 2021-08-30 7.23 3,040
?
  Peak Gage-Height Qualification Codes.
?
  Peak Streamflow Qualification Codes.